createdAt,value
2024-02-26T18:31:48.755Z,96573.94
2024-02-26T18:34:16.063Z,96577.97
2024-02-26T18:36:44.626Z,96578.16
2024-02-26T18:39:12.117Z,96583.81
2024-02-26T18:41:39.172Z,96580.59
2024-02-26T18:44:06.268Z,96584.31
2024-02-26T18:46:35.421Z,96572.09
2024-02-26T18:49:02.708Z,96575.28
2024-02-26T18:51:29.852Z,96578.38
2024-02-26T18:53:56.946Z,96569.16
2024-02-26T18:56:24.258Z,96568.06
2024-02-26T18:58:51.457Z,96570.16
2024-02-26T19:01:18.542Z,96576.09
2024-02-26T19:03:45.881Z,96579.66
2024-02-26T19:06:17.656Z,96574.66
2024-02-26T19:08:44.833Z,96583.97
2024-02-26T19:11:12.083Z,96584.44
2024-02-26T19:13:43.499Z,96593.97
2024-02-26T19:16:10.548Z,96586.41
2024-02-26T19:18:37.886Z,96588.50
2024-02-26T19:21:05.471Z,96585.28
2024-02-26T19:23:34.693Z,96588.03
2024-02-26T19:26:01.984Z,96590.78
2024-02-26T19:28:29.066Z,96594.16
2024-02-26T19:30:56.155Z,96594.63
2024-02-26T19:33:23.422Z,96589.63
2024-02-26T19:35:50.557Z,96592.38
2024-02-26T19:38:21.049Z,96597.03
2024-02-26T19:40:48.374Z,96601.25
2024-02-26T19:43:16.386Z,96598.34
2024-02-26T19:45:43.696Z,96608.16
2024-02-26T19:48:10.927Z,96613.16
2024-02-26T19:50:38.761Z,96604.47
2024-02-26T19:53:06.086Z,96612.03
2024-02-26T19:55:34.752Z,96595.56
2024-02-26T19:58:04.233Z,96591.06
2024-02-26T20:00:32.013Z,96590.44
2024-02-26T20:02:59.231Z,96596.22
2024-02-26T20:05:26.417Z,96607.16
2024-02-26T20:07:53.569Z,96605.56
2024-02-26T20:10:20.673Z,96617.00
2024-02-26T20:12:47.898Z,96618.94
2024-02-26T20:15:15.062Z,96630.53
2024-02-26T20:17:42.224Z,96622.94
2024-02-26T20:20:09.700Z,96635.69
2024-02-26T20:27:11.522Z,96647.75
2024-02-26T20:29:39.877Z,96650.81
2024-02-26T20:32:07.320Z,96669.31
2024-02-26T20:34:34.787Z,96675.44
2024-02-26T20:37:03.173Z,96684.94
2024-02-26T20:39:30.527Z,96684.00
2024-02-26T20:41:57.883Z,96685.19
2024-02-26T20:44:24.983Z,96681.19
2024-02-26T20:46:56.757Z,96682.00
2024-02-26T20:49:24.044Z,96690.19
2024-02-26T20:51:51.171Z,96690.34
2024-02-26T20:54:18.809Z,96692.75
2024-02-26T20:56:46.939Z,96698.03
2024-02-26T20:59:14.348Z,96693.81
2024-02-26T21:01:41.487Z,96692.84
2024-02-26T21:04:09.006Z,96701.03
2024-02-26T21:06:36.950Z,96703.41
2024-02-26T21:09:10.130Z,96709.59
2024-02-26T21:11:37.480Z,96707.69
2024-02-26T21:14:05.286Z,96707.16
2024-02-26T21:16:32.366Z,96714.53
2024-02-26T21:19:00.727Z,96715.72
2024-02-26T21:21:29.587Z,96711.28
2024-02-26T21:23:58.321Z,96713.47
2024-02-26T21:26:26.642Z,96718.94
2024-02-26T21:28:53.885Z,96715.41
2024-02-26T21:31:21.053Z,96714.03
2024-02-26T21:33:48.784Z,96723.09
2024-02-26T21:36:16.173Z,96717.69
2024-02-26T21:38:50.181Z,96717.84
2024-02-26T21:41:19.936Z,96723.53
2024-02-26T21:43:51.115Z,96729.53
2024-02-26T21:46:18.210Z,96722.41
2024-02-26T21:48:45.355Z,96722.09
2024-02-26T21:51:12.803Z,96731.84
2024-02-26T21:53:40.198Z,96737.53
2024-02-26T21:56:08.573Z,96741.19
2024-02-26T21:58:36.185Z,96743.00
2024-02-26T22:01:03.769Z,96743.16
2024-02-26T22:03:31.175Z,96744.06
2024-02-26T22:05:58.310Z,96746.78
2024-02-26T22:08:25.687Z,96748.63
2024-02-26T22:10:54.637Z,96765.88
2024-02-26T22:13:22.304Z,96757.13
2024-02-26T22:15:49.432Z,96757.00
2024-02-26T22:18:16.685Z,96757.69
2024-02-26T22:20:44.905Z,96748.38
2024-02-26T22:23:11.977Z,96751.56
2024-02-26T22:25:39.437Z,96741.56
2024-02-26T22:28:06.518Z,96738.56
2024-02-26T22:30:34.153Z,96743.41
2024-02-26T22:33:01.554Z,96750.56
2024-02-26T22:35:28.740Z,96750.84
2024-02-26T22:37:55.816Z,96750.03
2024-02-26T22:40:23.010Z,96756.53
2024-02-26T22:42:56.627Z,96754.81
2024-02-26T22:45:25.544Z,96756.38
2024-02-26T22:47:55.002Z,96774.38
2024-02-26T22:50:22.223Z,96772.84
2024-02-26T22:52:54.731Z,96787.91
2024-02-26T22:55:25.259Z,96806.59
2024-02-26T22:57:56.443Z,96802.47
2024-02-26T23:00:33.710Z,96797.31
2024-02-26T23:03:01.694Z,96804.50
2024-02-26T23:05:29.163Z,96806.94
2024-02-26T23:07:56.987Z,96802.88
2024-02-26T23:10:24.702Z,96803.13
2024-02-26T23:12:55.161Z,96803.28
2024-02-26T23:15:22.776Z,96806.88
2024-02-26T23:17:55.397Z,96795.06
2024-02-26T23:20:23.364Z,96801.13
2024-02-26T23:22:55.451Z,96804.81
2024-02-26T23:25:22.576Z,96809.72
2024-02-26T23:27:52.475Z,96817.25
2024-02-26T23:30:20.843Z,96815.56
2024-02-26T23:32:48.250Z,96811.94
2024-02-26T23:35:15.386Z,96822.88
2024-02-26T23:37:42.443Z,96827.25
2024-02-26T23:40:09.494Z,96829.38
2024-02-26T23:42:37.960Z,96840.00
2024-02-26T23:45:06.488Z,96843.22
2024-02-26T23:47:34.224Z,96849.47
2024-02-26T23:50:01.313Z,96842.19
2024-02-26T23:52:28.384Z,96850.06
2024-02-26T23:54:55.515Z,96847.34
2024-02-26T23:57:22.608Z,96860.28
2024-02-26T23:59:49.791Z,96861.84
